Terminal Aerodrome Forecast
Issued by NWS Sioux Falls, SD

Home | Current Version | Previous Version | Graphics & Text | Print | Product List | Glossary On
Versions: 1 2 3 4 5 6 7 8 9 10 11 12 13 14 15 16 17
000
FTUS43 KFSD 272002 AAB
TAFFSD
TAF AMD
KFSD 272002Z 2720/2818 08018G25KT P6SM VCSH OVC009
     FM280300 06014G20KT 5SM SHRA BR OVC008
     FM280900 04012KT 6SM -RA OVC008
     FM281600 04013G19KT P6SM VCSH OVC015=

USA.gov is the U.S. government's official web portal to all federal, state and local government web resources and services.